createdAt,value
2022-11-15T00:02:24.672Z,8.45
2022-11-15T00:08:00.082Z,8.70
2022-11-15T00:13:20.582Z,11.35
2022-11-15T00:18:44.082Z,10.25
2022-11-15T00:24:06.754Z,12.85
2022-11-15T00:29:26.852Z,7.25
2022-11-15T00:34:47.306Z,6.25
2022-11-15T00:40:08.734Z,10.00
2022-11-15T00:45:29.040Z,10.10
2022-11-15T00:50:50.267Z,8.55
2022-11-15T00:56:10.812Z,9.10
2022-11-15T01:01:31.191Z,12.30
2022-11-15T01:06:52.037Z,7.15
2022-11-15T01:12:12.417Z,6.40
2022-11-15T01:17:33.284Z,7.40
2022-11-15T01:22:53.663Z,7.65
2022-11-15T01:28:14.573Z,8.75
2022-11-15T01:33:38.067Z,8.00
2022-11-15T01:38:59.566Z,8.13
2022-11-15T01:44:42.099Z,9.70
2022-11-15T01:56:28.562Z,5.15
2022-11-15T02:01:48.798Z,14.40
2022-11-15T02:07:12.466Z,7.25
2022-11-15T02:12:32.724Z,7.07
2022-11-15T02:17:55.817Z,6.35
2022-11-15T02:23:24.853Z,7.37
2022-11-15T02:29:02.668Z,6.95
2022-11-15T02:34:54.573Z,9.25
2022-11-15T02:40:20.570Z,6.45
2022-11-15T02:45:49.332Z,7.77
2022-11-15T02:51:10.754Z,7.00
2022-11-15T02:56:31.749Z,8.95
2022-11-15T03:02:07.947Z,9.60
2022-11-15T03:07:44.186Z,8.00
2022-11-15T03:13:25.507Z,7.20
2022-11-15T03:18:53.937Z,5.70
2022-11-15T03:24:23.300Z,5.20
2022-11-15T03:29:51.248Z,7.65
2022-11-15T03:35:24.177Z,8.15
2022-11-15T03:40:54.438Z,5.23
2022-11-15T03:46:24.729Z,5.50
2022-11-15T03:51:44.949Z,11.35
2022-11-15T03:57:05.321Z,9.75
2022-11-15T04:02:25.825Z,9.00
2022-11-15T04:07:46.174Z,8.10
2022-11-15T04:13:06.606Z,8.87
2022-11-15T04:18:27.409Z,8.80
2022-11-15T04:24:06.187Z,10.55
2022-11-15T04:29:35.833Z,9.35
2022-11-15T04:34:56.037Z,6.90
2022-11-15T04:40:16.872Z,8.55
2022-11-15T04:45:37.393Z,8.10
2022-11-15T04:50:57.635Z,7.95
2022-11-15T04:56:18.180Z,6.35
2022-11-15T05:01:44.601Z,8.03
2022-11-15T05:07:05.153Z,7.07
2022-11-15T05:12:25.708Z,8.57
2022-11-15T05:17:46.098Z,9.20
2022-11-15T05:23:06.832Z,11.90
2022-11-15T05:28:27.513Z,9.53
2022-11-15T05:33:49.619Z,6.67
2022-11-15T05:39:10.450Z,8.30
2022-11-15T05:44:32.492Z,7.27
2022-11-15T05:49:54.596Z,6.55
2022-11-15T05:55:15.639Z,4.93
2022-11-15T06:00:35.922Z,4.30
2022-11-15T06:05:56.976Z,8.63
2022-11-15T06:11:17.569Z,8.77
2022-11-15T06:16:38.443Z,13.35
2022-11-15T06:22:01.878Z,5.95
2022-11-15T06:27:21.898Z,8.33
2022-11-15T06:32:42.660Z,6.10
2022-11-15T06:38:05.803Z,6.40
2022-11-15T06:43:26.601Z,11.77
2022-11-15T06:48:47.035Z,6.70
2022-11-15T06:54:07.411Z,8.40
2022-11-15T06:59:27.970Z,4.35
2022-11-15T07:04:48.306Z,7.35
2022-11-15T07:10:09.840Z,9.30
2022-11-15T07:15:30.237Z,8.50
2022-11-15T07:20:50.727Z,7.10
2022-11-15T07:26:11.148Z,4.70
2022-11-15T07:31:31.493Z,11.25
2022-11-15T07:36:51.836Z,7.70
2022-11-15T07:42:31.211Z,7.30
2022-11-15T07:47:51.775Z,8.27
2022-11-15T07:53:11.887Z,10.05
2022-11-15T07:58:32.265Z,8.55
2022-11-15T08:03:52.830Z,8.67
2022-11-15T08:09:13.241Z,6.73
2022-11-15T08:14:33.782Z,6.70
2022-11-15T08:19:54.069Z,6.33
2022-11-15T08:25:14.900Z,7.87
2022-11-15T08:30:38.990Z,6.73
2022-11-15T08:41:31.053Z,5.70
2022-11-15T08:46:51.481Z,6.87
2022-11-15T08:52:12.030Z,12.13
2022-11-15T08:57:32.582Z,11.27
2022-11-15T09:02:52.825Z,7.90
2022-11-15T09:08:45.563Z,12.10
2022-11-15T09:13:54.359Z,5.17
2022-11-15T09:19:15.676Z,6.40
2022-11-15T09:24:36.749Z,5.10
2022-11-15T09:29:56.834Z,6.07
2022-11-15T09:35:17.881Z,7.13
2022-11-15T09:40:39.034Z,6.23
2022-11-15T09:46:36.824Z,7.07
2022-11-15T09:51:48.045Z,7.22
2022-11-15T09:56:52.183Z,10.90
2022-11-15T10:02:06.014Z,7.22
2022-11-15T10:07:22.034Z,9.70
2022-11-15T10:12:26.030Z,9.27
2022-11-15T10:17:37.008Z,13.50
2022-11-15T10:23:02.814Z,10.30
2022-11-15T10:28:30.739Z,10.35
2022-11-15T10:33:36.626Z,9.43
2022-11-15T10:38:52.034Z,9.55
2022-11-15T10:44:09.568Z,10.77
2022-11-15T10:49:20.534Z,7.03
2022-11-15T10:54:26.427Z,8.48
2022-11-15T10:59:36.225Z,11.12
2022-11-15T11:04:51.841Z,9.90
2022-11-15T11:10:49.812Z,6.30
2022-11-15T11:15:48.301Z,11.55
2022-11-15T11:21:05.020Z,13.73
2022-11-15T11:26:10.457Z,7.53
2022-11-15T11:31:29.026Z,7.72
2022-11-15T11:36:50.059Z,8.45
2022-11-15T11:42:05.977Z,8.13
2022-11-15T11:47:34.561Z,9.07
2022-11-15T11:52:50.511Z,5.47
2022-11-15T11:58:00.343Z,9.65
2022-11-15T12:03:18.841Z,11.90
2022-11-15T12:08:57.356Z,6.45
2022-11-15T12:14:03.975Z,6.70
2022-11-15T12:19:06.303Z,6.87
2022-11-15T12:24:28.206Z,5.68
2022-11-15T12:29:49.773Z,5.50
2022-11-15T12:34:53.179Z,4.22
2022-11-15T12:40:11.209Z,4.25
2022-11-15T12:45:32.521Z,4.70
2022-11-15T12:50:54.452Z,3.22
2022-11-15T12:56:05.969Z,7.03
2022-11-15T13:01:09.124Z,8.27
2022-11-15T13:06:38.504Z,3.50
2022-11-15T13:11:49.859Z,3.30
2022-11-15T13:16:59.895Z,4.60
2022-11-15T13:22:24.144Z,5.15
2022-11-15T13:27:26.400Z,4.78
2022-11-15T13:32:28.551Z,5.20
2022-11-15T13:37:33.276Z,6.53
2022-11-15T13:42:35.770Z,2.55
2022-11-15T13:47:37.877Z,5.57
2022-11-15T13:52:44.113Z,3.58
2022-11-15T13:58:01.152Z,4.75
2022-11-15T14:03:25.139Z,3.72
2022-11-15T14:08:27.184Z,5.87
2022-11-15T14:13:31.638Z,6.90
2022-11-15T14:19:00.025Z,2.85
2022-11-15T14:24:18.830Z,2.80
2022-11-15T14:29:29.158Z,3.80
2022-11-15T14:34:33.172Z,8.20
2022-11-15T14:39:35.237Z,2.60
2022-11-15T14:44:37.267Z,5.45
2022-11-15T14:49:39.464Z,9.45
2022-11-15T14:54:41.959Z,4.10
2022-11-15T14:59:44.040Z,5.25
2022-11-15T15:04:46.177Z,8.63
2022-11-15T15:09:48.276Z,3.87
2022-11-15T15:14:51.480Z,2.80
2022-11-15T15:19:53.576Z,3.10
2022-11-15T15:24:55.620Z,6.93
2022-11-15T15:29:57.654Z,5.93
2022-11-15T15:35:00.244Z,8.30
2022-11-15T15:40:02.383Z,4.80
2022-11-15T15:45:05.173Z,3.25
2022-11-15T15:50:34.331Z,5.18
2022-11-15T15:55:36.427Z,4.45
2022-11-15T16:00:38.860Z,10.88
2022-11-15T16:05:41.197Z,9.27
2022-11-15T16:10:43.172Z,10.02
2022-11-15T16:15:47.154Z,3.63
2022-11-15T16:20:52.846Z,4.20
2022-11-15T16:25:56.663Z,3.58
2022-11-15T16:31:11.513Z,3.65
2022-11-15T16:36:29.488Z,3.03
2022-11-15T16:41:33.009Z,4.12
2022-11-15T16:46:35.276Z,6.65
2022-11-15T16:51:37.917Z,4.85
2022-11-15T16:56:40.393Z,3.92
2022-11-15T17:01:50.567Z,5.80
2022-11-15T17:06:53.042Z,3.58
2022-11-15T17:11:55.177Z,3.85
2022-11-15T17:16:57.267Z,5.93
2022-11-15T17:21:59.440Z,3.80
2022-11-15T17:27:01.891Z,5.32
2022-11-15T17:32:04.071Z,3.12
2022-11-15T17:37:06.075Z,2.97
2022-11-15T17:42:08.268Z,2.92
2022-11-15T17:47:10.790Z,4.65
2022-11-15T17:52:12.901Z,4.22
2022-11-15T17:57:14.970Z,3.08
2022-11-15T18:02:17.098Z,4.97
2022-11-15T18:07:19.254Z,3.45
2022-11-15T18:12:22.392Z,9.55
2022-11-15T18:17:25.718Z,9.23
2022-11-15T18:22:27.779Z,23.65
2022-11-15T18:27:30.437Z,26.30
2022-11-15T18:32:35.071Z,21.20
2022-11-15T18:37:37.153Z,15.93
2022-11-15T18:42:40.464Z,17.90
2022-11-15T18:47:42.913Z,20.40
2022-11-15T18:52:44.963Z,15.82
2022-11-15T18:57:47.066Z,16.30
2022-11-15T19:02:49.180Z,14.32
2022-11-15T19:07:51.271Z,12.27
2022-11-15T19:12:55.025Z,16.37
2022-11-15T19:17:57.822Z,8.63
2022-11-15T19:22:59.862Z,9.35
2022-11-15T19:28:01.904Z,6.37
2022-11-15T19:33:04.059Z,10.27
2022-11-15T19:38:06.137Z,8.77
2022-11-15T19:43:08.290Z,8.77
2022-11-15T19:48:10.363Z,8.93
2022-11-15T19:53:12.777Z,8.82
2022-11-15T19:58:14.856Z,8.35
2022-11-15T20:03:17.513Z,12.63
2022-11-15T20:13:21.946Z,10.77
2022-11-15T20:18:25.480Z,6.10
2022-11-15T20:23:27.892Z,6.70
2022-11-15T20:28:30.020Z,7.07
2022-11-15T20:33:32.445Z,7.68
2022-11-15T20:38:34.827Z,8.43
2022-11-15T20:48:39.703Z,8.77
2022-11-15T20:53:43.202Z,5.62
2022-11-15T20:58:46.016Z,10.20
2022-11-15T21:03:48.137Z,16.77
2022-11-15T21:09:24.032Z,13.68
2022-11-15T21:14:26.112Z,18.70
2022-11-15T21:19:34.078Z,14.18
2022-11-15T21:24:38.994Z,16.07
2022-11-15T21:29:45.461Z,8.48
2022-11-15T21:34:47.577Z,11.50
2022-11-15T21:39:49.775Z,11.43
2022-11-15T21:44:51.853Z,14.80
2022-11-15T21:49:53.907Z,9.93
2022-11-15T21:54:56.792Z,9.48
2022-11-15T22:00:17.296Z,9.97
2022-11-15T22:05:19.349Z,8.30
2022-11-15T22:10:21.536Z,11.77
2022-11-15T22:15:23.622Z,9.52
2022-11-15T22:20:44.050Z,11.35
2022-11-15T22:25:47.133Z,12.53
2022-11-15T22:30:51.849Z,11.32
2022-11-15T22:35:54.652Z,9.23
2022-11-15T22:46:00.649Z,10.60
2022-11-15T22:51:04.133Z,7.70
2022-11-15T22:56:06.825Z,7.47
2022-11-15T23:01:20.761Z,12.60
2022-11-15T23:06:23.011Z,7.50
2022-11-15T23:11:43.805Z,8.75
2022-11-15T23:16:46.092Z,9.33
2022-11-15T23:22:07.096Z,6.85
2022-11-15T23:27:09.510Z,6.43
2022-11-15T23:32:30.360Z,7.00
2022-11-15T23:37:32.647Z,6.27
2022-11-15T23:42:35.169Z,6.07
2022-11-15T23:47:37.800Z,6.68
2022-11-15T23:52:39.998Z,7.80
2022-11-15T23:57:42.271Z,6.22
